createdAt,value
2019-02-07T00:00:23.317Z,91.50
2019-02-07T00:02:54.827Z,91.60
2019-02-07T00:05:27.296Z,91.60
2019-02-07T00:08:00.655Z,91.30
2019-02-07T00:10:30.932Z,91.30
2019-02-07T00:13:00.970Z,90.80
2019-02-07T00:15:36.536Z,90.60
2019-02-07T00:18:06.367Z,90.90
2019-02-07T00:20:38.050Z,91.00
2019-02-07T00:23:08.149Z,91.10
2019-02-07T00:25:40.360Z,90.70
2019-02-07T00:28:09.885Z,90.70
2019-02-07T00:30:40.622Z,91.00
2019-02-07T00:33:10.415Z,90.70
2019-02-07T00:35:40.204Z,90.80
2019-02-07T00:38:11.060Z,90.70
2019-02-07T00:40:40.487Z,91.20
2019-02-07T00:43:09.791Z,90.60
2019-02-07T00:45:39.196Z,90.80
2019-02-07T00:48:08.296Z,90.80
2019-02-07T00:50:39.757Z,90.60
2019-02-07T00:53:09.675Z,90.90
2019-02-07T00:55:39.441Z,91.20
2019-02-07T00:58:09.062Z,91.60
2019-02-07T01:00:40.756Z,91.90
2019-02-07T01:03:10.362Z,91.60
2019-02-07T01:05:39.877Z,91.60
2019-02-07T01:08:11.090Z,91.70
2019-02-07T01:10:40.213Z,91.90
2019-02-07T01:13:09.763Z,91.90
2019-02-07T01:15:38.834Z,91.80
2019-02-07T01:18:10.551Z,92.00
2019-02-07T01:20:40.602Z,91.90
2019-02-07T01:23:10.521Z,92.00
2019-02-07T01:25:40.285Z,92.10
2019-02-07T01:28:10.339Z,92.10
2019-02-07T01:30:39.778Z,92.10
2019-02-07T01:33:09.647Z,92.10
2019-02-07T01:35:39.255Z,92.00
2019-02-07T01:38:08.582Z,92.10
2019-02-07T01:40:41.182Z,92.20
2019-02-07T01:43:11.115Z,92.40
2019-02-07T01:45:42.852Z,92.50
2019-02-07T01:48:13.245Z,92.50
2019-02-07T01:50:42.328Z,92.50
2019-02-07T01:53:12.299Z,92.50
2019-02-07T01:55:43.747Z,92.50
2019-02-07T01:58:16.056Z,92.50
2019-02-07T02:00:46.085Z,92.50
2019-02-07T02:03:15.585Z,92.30
2019-02-07T02:05:45.573Z,92.10
2019-02-07T02:08:16.811Z,92.10
2019-02-07T02:10:46.460Z,92.20
2019-02-07T02:13:16.087Z,92.00
2019-02-07T02:15:45.684Z,92.00
2019-02-07T02:18:19.026Z,92.10
2019-02-07T02:20:51.269Z,92.00
2019-02-07T02:23:21.335Z,92.30
2019-02-07T02:25:50.766Z,92.20
2019-02-07T02:28:20.050Z,91.80
2019-02-07T02:30:49.545Z,91.50
2019-02-07T02:33:19.911Z,91.60
2019-02-07T02:35:49.634Z,91.60
2019-02-07T02:38:21.123Z,91.70
2019-02-07T02:40:50.884Z,91.80
2019-02-07T02:43:20.848Z,91.70
2019-02-07T02:45:50.160Z,91.80
2019-02-07T02:48:22.525Z,91.60
2019-02-07T02:50:54.341Z,91.80
2019-02-07T02:53:23.538Z,91.80
2019-02-07T02:55:54.238Z,91.60
2019-02-07T02:58:24.126Z,91.50
2019-02-07T03:01:29.729Z,91.80
2019-02-07T03:04:14.906Z,91.60
2019-02-07T03:07:08.552Z,91.80
2019-02-07T03:10:12.681Z,91.70
2019-02-07T03:13:01.152Z,92.00
2019-02-07T03:16:05.160Z,92.00
2019-02-07T03:18:47.310Z,92.20
2019-02-07T03:21:42.092Z,92.20
2019-02-07T03:24:31.213Z,92.30
2019-02-07T03:27:15.073Z,92.30
2019-02-07T03:30:02.399Z,92.20
2019-02-07T03:32:44.812Z,92.40
2019-02-07T03:35:36.118Z,92.50
2019-02-07T03:38:24.355Z,92.60
2019-02-07T03:41:02.421Z,92.20
2019-02-07T03:43:48.577Z,91.90
2019-02-07T03:46:49.407Z,92.10
2019-02-07T03:49:24.428Z,91.90
2019-02-07T03:52:12.743Z,92.20
2019-02-07T03:55:03.449Z,92.30
2019-02-07T03:57:51.324Z,92.10
2019-02-07T04:00:30.304Z,91.80
2019-02-07T04:03:27.832Z,91.90
2019-02-07T04:06:15.080Z,92.00
2019-02-07T04:09:05.284Z,92.20
2019-02-07T04:12:11.946Z,92.30
2019-02-07T04:15:18.522Z,92.30
2019-02-07T04:18:00.506Z,92.30
2019-02-07T04:20:47.223Z,92.00
2019-02-07T04:23:27.513Z,92.00
2019-02-07T04:26:18.909Z,91.90
2019-02-07T04:29:07.264Z,92.10
2019-02-07T04:31:52.494Z,92.10
2019-02-07T04:34:53.729Z,91.90
2019-02-07T04:37:42.106Z,91.80
2019-02-07T04:40:30.847Z,91.90
2019-02-07T04:43:23.454Z,92.10
2019-02-07T04:46:12.034Z,92.10
2019-02-07T04:48:53.043Z,92.10
2019-02-07T04:51:41.038Z,92.10
2019-02-07T04:54:27.081Z,92.10
2019-02-07T04:57:14.123Z,92.10
2019-02-07T05:00:02.864Z,92.10
2019-02-07T05:02:44.929Z,92.10
2019-02-07T05:05:32.690Z,92.30
2019-02-07T05:08:27.271Z,92.30
2019-02-07T05:11:12.733Z,92.20
2019-02-07T05:14:05.580Z,92.20
2019-02-07T05:16:53.009Z,92.30
2019-02-07T05:19:47.235Z,92.30
2019-02-07T05:22:48.237Z,92.20
2019-02-07T05:25:50.030Z,92.40
2019-02-07T05:28:38.962Z,92.10
2019-02-07T05:31:31.645Z,92.10
2019-02-07T05:34:19.795Z,92.30
2019-02-07T05:37:06.475Z,92.10
2019-02-07T05:39:53.871Z,91.80
2019-02-07T05:42:35.769Z,91.90
2019-02-07T05:45:23.536Z,92.00
2019-02-07T05:48:04.241Z,92.00
2019-02-07T05:50:51.018Z,92.10
2019-02-07T05:53:38.324Z,92.10
2019-02-07T05:56:31.260Z,92.20
2019-02-07T05:59:22.033Z,92.30
2019-02-07T06:02:09.760Z,92.00
2019-02-07T06:04:56.656Z,92.10
2019-02-07T06:07:46.384Z,92.10
2019-02-07T06:10:36.349Z,92.10
2019-02-07T06:13:23.876Z,92.20
2019-02-07T06:16:06.173Z,92.40
2019-02-07T06:18:50.293Z,92.40
2019-02-07T06:21:37.725Z,92.20
2019-02-07T06:24:39.050Z,92.20
2019-02-07T06:27:30.940Z,92.30
2019-02-07T06:30:25.076Z,92.40
2019-02-07T06:33:12.478Z,92.40
2019-02-07T06:36:00.279Z,92.50
2019-02-07T06:38:41.193Z,92.40
2019-02-07T06:41:29.241Z,92.30
2019-02-07T06:44:10.563Z,92.20
2019-02-07T06:46:55.118Z,92.00
2019-02-07T06:49:51.452Z,91.70
2019-02-07T06:52:38.705Z,91.70
2019-02-07T06:55:27.095Z,91.80
2019-02-07T06:58:12.170Z,91.60
2019-02-07T07:00:57.645Z,91.60
2019-02-07T07:03:57.586Z,91.50
2019-02-07T07:06:33.744Z,91.70
2019-02-07T07:09:34.737Z,91.40
2019-02-07T07:12:23.021Z,91.60
2019-02-07T07:15:09.523Z,91.40
2019-02-07T07:18:03.821Z,91.30
2019-02-07T07:20:55.444Z,91.10
2019-02-07T07:23:44.800Z,90.50
2019-02-07T07:26:42.200Z,90.20
2019-02-07T07:29:29.263Z,90.30
2019-02-07T07:32:16.447Z,90.70
2019-02-07T07:34:59.774Z,90.60
2019-02-07T07:37:52.229Z,90.60
2019-02-07T07:40:40.720Z,90.10
2019-02-07T07:43:30.387Z,88.10
2019-02-07T07:46:33.551Z,88.40
2019-02-07T07:49:37.177Z,89.00
2019-02-07T07:52:32.270Z,88.10
2019-02-07T07:55:29.428Z,88.70
2019-02-07T07:58:14.335Z,87.60
2019-02-07T08:01:01.507Z,88.50
2019-02-07T08:03:52.763Z,87.00
2019-02-07T08:06:35.637Z,85.70
2019-02-07T08:09:44.437Z,86.70
2019-02-07T08:12:29.873Z,85.70
2019-02-07T08:15:24.166Z,86.70
2019-02-07T08:18:24.738Z,86.00
2019-02-07T08:21:12.206Z,85.30
2019-02-07T08:24:06.749Z,84.60
2019-02-07T08:26:56.181Z,83.60
2019-02-07T08:29:45.497Z,82.80
2019-02-07T08:32:33.373Z,83.80
2019-02-07T08:35:29.626Z,83.30
2019-02-07T08:38:17.467Z,83.20
2019-02-07T08:41:05.641Z,84.20
2019-02-07T08:43:55.263Z,82.10
2019-02-07T08:46:41.978Z,83.30
2019-02-07T08:49:23.102Z,83.60
2019-02-07T08:52:10.426Z,82.20
2019-02-07T08:54:56.443Z,81.60
2019-02-07T08:57:44.013Z,80.40
2019-02-07T09:00:34.637Z,79.80
2019-02-07T09:03:21.986Z,76.20
2019-02-07T09:06:13.723Z,72.80
2019-02-07T09:08:52.317Z,71.90
2019-02-07T09:11:39.402Z,67.80
2019-02-07T09:14:17.232Z,68.80
2019-02-07T09:17:08.642Z,67.20
2019-02-07T09:19:57.777Z,69.00
2019-02-07T09:22:43.533Z,70.70
2019-02-07T09:25:34.426Z,69.70
2019-02-07T09:28:18.002Z,65.40
2019-02-07T09:31:06.818Z,65.90
2019-02-07T09:34:07.737Z,63.50
2019-02-07T09:37:07.845Z,65.80
2019-02-07T09:39:54.587Z,67.90
2019-02-07T09:42:47.653Z,67.30
2019-02-07T09:45:36.258Z,66.50
2019-02-07T09:48:23.905Z,70.50
2019-02-07T09:51:12.194Z,66.70
2019-02-07T09:54:06.987Z,66.80
2019-02-07T09:56:54.651Z,63.10
2019-02-07T09:59:44.186Z,62.10
2019-02-07T10:02:27.274Z,65.40
2019-02-07T10:05:18.588Z,66.20
2019-02-07T10:07:58.614Z,65.10
2019-02-07T10:10:58.970Z,67.80
2019-02-07T10:13:50.071Z,68.00
2019-02-07T10:16:57.009Z,72.20
2019-02-07T10:19:44.476Z,74.00
2019-02-07T10:22:42.563Z,74.60
2019-02-07T10:25:31.178Z,73.30
2019-02-07T10:28:18.597Z,73.80
2019-02-07T10:31:13.494Z,73.50
2019-02-07T10:33:51.085Z,74.60
2019-02-07T10:36:51.948Z,75.60
2019-02-07T10:39:35.093Z,76.00
2019-02-07T10:42:35.702Z,74.60
2019-02-07T10:45:33.785Z,76.20
2019-02-07T10:48:31.096Z,76.10
2019-02-07T10:51:17.644Z,74.80
2019-02-07T10:54:08.839Z,77.00
2019-02-07T10:57:07.645Z,76.10
2019-02-07T10:59:55.771Z,76.40
2019-02-07T11:02:43.262Z,76.90
2019-02-07T11:05:31.982Z,74.70
2019-02-07T11:08:09.195Z,77.80
2019-02-07T11:11:02.889Z,75.60
2019-02-07T11:13:45.842Z,75.00
2019-02-07T11:16:36.788Z,75.00
2019-02-07T11:19:23.641Z,74.10
2019-02-07T11:22:23.095Z,74.30
2019-02-07T11:25:11.034Z,76.10
2019-02-07T11:28:10.857Z,75.90
2019-02-07T11:31:02.158Z,77.60
2019-02-07T11:33:50.648Z,75.70
2019-02-07T11:36:38.905Z,76.90
2019-02-07T11:39:38.034Z,75.10
2019-02-07T11:42:28.002Z,75.70
2019-02-07T11:45:06.535Z,77.10
2019-02-07T11:48:03.738Z,77.20
2019-02-07T11:50:56.286Z,77.00
2019-02-07T11:53:47.557Z,76.80
2019-02-07T11:56:35.140Z,77.70
2019-02-07T11:59:23.092Z,75.90
2019-02-07T12:02:10.357Z,77.40
2019-02-07T12:05:11.959Z,76.70
2019-02-07T12:08:01.670Z,77.80
2019-02-07T12:10:55.810Z,77.30
2019-02-07T12:13:34.082Z,77.00
2019-02-07T12:16:22.474Z,77.20
2019-02-07T12:19:17.652Z,77.00
2019-02-07T12:22:18.109Z,76.70
2019-02-07T12:25:00.873Z,78.10
2019-02-07T12:27:39.914Z,78.50
2019-02-07T12:30:43.422Z,77.20
2019-02-07T12:33:35.617Z,76.70
2019-02-07T12:36:25.557Z,77.20
2019-02-07T12:39:17.231Z,77.80
2019-02-07T12:42:14.409Z,78.50
2019-02-07T12:45:12.464Z,77.80
2019-02-07T12:48:07.040Z,77.90
2019-02-07T12:50:53.868Z,77.80
2019-02-07T12:53:45.839Z,78.00
2019-02-07T12:56:26.386Z,78.10
2019-02-07T12:59:17.975Z,77.50
2019-02-07T13:02:15.256Z,77.80
2019-02-07T13:05:03.160Z,76.80
2019-02-07T13:07:46.877Z,77.10
2019-02-07T13:10:36.087Z,76.80
2019-02-07T13:13:31.906Z,76.70
2019-02-07T13:16:19.852Z,77.40
2019-02-07T13:19:11.109Z,77.90
2019-02-07T13:22:00.716Z,78.00
2019-02-07T13:24:52.290Z,76.90
2019-02-07T13:27:38.783Z,77.30
2019-02-07T13:30:31.919Z,77.70
2019-02-07T13:33:17.217Z,78.10
2019-02-07T13:36:01.812Z,77.60
2019-02-07T13:38:48.946Z,77.00
2019-02-07T13:41:47.357Z,77.00
2019-02-07T13:44:42.695Z,77.20
2019-02-07T13:47:31.701Z,77.70
2019-02-07T13:50:18.755Z,77.60
2019-02-07T13:53:00.864Z,77.10
2019-02-07T13:55:52.592Z,77.20
2019-02-07T13:58:44.934Z,77.30
2019-02-07T14:01:32.320Z,78.10
2019-02-07T14:04:11.581Z,79.30
2019-02-07T14:07:01.529Z,78.60
2019-02-07T14:09:45.686Z,79.30
2019-02-07T14:12:41.068Z,78.70
2019-02-07T14:15:34.613Z,79.10
2019-02-07T14:18:22.279Z,78.90
2019-02-07T14:21:25.845Z,79.80
2019-02-07T14:24:18.566Z,79.30
2019-02-07T14:27:12.082Z,80.00
2019-02-07T14:30:03.351Z,80.30
2019-02-07T14:32:50.802Z,79.80
2019-02-07T14:35:42.681Z,79.70
2019-02-07T14:38:31.653Z,80.70
2019-02-07T14:41:23.362Z,81.00
2019-02-07T14:44:14.859Z,80.00
2019-02-07T14:46:50.760Z,79.80
2019-02-07T14:49:21.692Z,80.00
2019-02-07T14:51:52.663Z,79.90
2019-02-07T14:54:22.749Z,80.00
2019-02-07T14:56:52.170Z,80.50
2019-02-07T14:59:21.623Z,81.00
2019-02-07T15:01:51.377Z,81.30
2019-02-07T15:04:20.916Z,81.30
2019-02-07T15:06:51.530Z,82.00
2019-02-07T15:09:22.104Z,82.40
2019-02-07T15:11:51.657Z,82.90
2019-02-07T15:14:23.700Z,82.90
2019-02-07T15:16:53.330Z,82.90
2019-02-07T15:19:23.345Z,83.60
2019-02-07T15:21:55.167Z,84.00
2019-02-07T15:24:26.612Z,84.20
2019-02-07T15:26:57.794Z,85.00
2019-02-07T15:29:30.080Z,85.40
2019-02-07T15:32:03.288Z,85.40
2019-02-07T15:34:33.113Z,85.30
2019-02-07T15:37:05.020Z,85.50
2019-02-07T15:39:35.843Z,85.40
2019-02-07T15:42:05.310Z,84.80
2019-02-07T15:44:36.981Z,85.30
2019-02-07T15:47:08.918Z,85.40
2019-02-07T15:49:38.296Z,86.10
2019-02-07T15:52:07.873Z,86.20
2019-02-07T15:54:43.080Z,87.00
2019-02-07T15:57:15.379Z,88.30
2019-02-07T15:59:52.687Z,88.90
2019-02-07T16:02:38.227Z,89.10
2019-02-07T16:05:09.886Z,89.90
2019-02-07T16:07:40.181Z,90.00
2019-02-07T16:10:12.914Z,90.30
2019-02-07T16:12:44.431Z,90.20
2019-02-07T16:15:14.473Z,90.30
2019-02-07T16:17:46.766Z,90.40
2019-02-07T16:20:17.630Z,90.50
2019-02-07T16:22:47.815Z,90.50
2019-02-07T16:25:17.471Z,90.50
2019-02-07T16:27:47.171Z,90.50
2019-02-07T16:30:18.650Z,90.70
2019-02-07T16:32:49.550Z,90.80
2019-02-07T16:35:19.198Z,90.90
2019-02-07T16:37:49.128Z,90.90
2019-02-07T16:40:22.470Z,91.00
2019-02-07T16:42:53.299Z,91.10
2019-02-07T16:45:23.319Z,91.20
2019-02-07T16:47:55.052Z,91.40
2019-02-07T16:50:24.798Z,91.40
2019-02-07T16:52:54.321Z,91.80
2019-02-07T16:55:24.590Z,91.80
2019-02-07T16:57:54.087Z,92.00
2019-02-07T17:00:25.854Z,92.10
2019-02-07T17:02:56.085Z,92.30
2019-02-07T17:05:27.558Z,92.60
2019-02-07T17:07:56.724Z,92.70
2019-02-07T17:10:29.174Z,92.80
2019-02-07T17:12:59.530Z,93.00
2019-02-07T17:15:30.456Z,93.50
2019-02-07T17:18:00.507Z,93.80
2019-02-07T17:20:31.071Z,93.90
2019-02-07T17:23:01.605Z,94.30
2019-02-07T17:25:32.047Z,94.30
2019-02-07T17:28:02.146Z,94.30
2019-02-07T17:30:31.825Z,94.40
2019-02-07T17:33:01.600Z,94.40
2019-02-07T17:35:34.621Z,94.50
2019-02-07T17:38:04.225Z,94.40
2019-02-07T17:40:33.736Z,94.40
2019-02-07T17:43:03.198Z,94.40
2019-02-07T17:45:33.010Z,94.80
2019-02-07T17:48:03.191Z,94.40
2019-02-07T17:50:33.175Z,94.40
2019-02-07T17:53:03.834Z,94.50
2019-02-07T17:55:34.484Z,94.70
2019-02-07T17:58:03.776Z,94.80
2019-02-07T18:00:43.166Z,94.80
2019-02-07T18:03:13.159Z,94.80
2019-02-07T18:05:42.989Z,94.80
2019-02-07T18:08:12.360Z,95.00
2019-02-07T18:10:41.595Z,94.90
2019-02-07T18:13:11.373Z,94.90
2019-02-07T18:15:40.870Z,95.00
2019-02-07T18:18:10.110Z,95.00
2019-02-07T18:20:39.977Z,95.00
2019-02-07T18:23:10.556Z,95.00
2019-02-07T18:25:40.115Z,94.90
2019-02-07T18:28:09.890Z,94.80
2019-02-07T18:30:39.128Z,94.90
2019-02-07T18:33:09.027Z,94.90
2019-02-07T18:35:38.547Z,95.00
2019-02-07T18:38:08.331Z,94.90
2019-02-07T18:40:39.025Z,95.00
2019-02-07T18:43:08.506Z,94.90
2019-02-07T18:45:37.877Z,94.80
2019-02-07T18:48:07.590Z,94.80
2019-02-07T18:50:37.426Z,94.90
2019-02-07T18:53:09.164Z,95.00
2019-02-07T18:55:38.886Z,94.90
2019-02-07T18:58:08.075Z,95.00
2019-02-07T19:00:37.310Z,95.00
2019-02-07T19:03:06.819Z,95.00
2019-02-07T19:05:38.427Z,95.10
2019-02-07T19:08:07.803Z,95.00
2019-02-07T19:10:37.006Z,95.00
2019-02-07T19:13:06.334Z,95.10
2019-02-07T19:15:38.701Z,95.10
2019-02-07T19:18:08.270Z,95.20
2019-02-07T19:20:38.140Z,95.10
2019-02-07T19:23:08.251Z,95.00
2019-02-07T19:25:38.531Z,95.10
2019-02-07T19:28:11.386Z,95.20
2019-02-07T19:30:40.979Z,94.80
2019-02-07T19:33:11.036Z,94.80
2019-02-07T19:35:40.808Z,95.00
2019-02-07T19:38:11.062Z,94.90
2019-02-07T19:40:41.593Z,95.00
2019-02-07T19:43:12.407Z,95.10
2019-02-07T19:45:44.282Z,95.00
2019-02-07T19:48:17.128Z,95.00
2019-02-07T19:50:48.987Z,95.00
2019-02-07T19:53:19.204Z,95.00
2019-02-07T19:55:49.112Z,94.90
2019-02-07T19:58:19.680Z,95.00
2019-02-07T20:00:51.539Z,95.00
2019-02-07T20:03:21.838Z,95.10
2019-02-07T20:05:55.851Z,95.20
2019-02-07T20:08:31.249Z,95.30
2019-02-07T20:11:05.768Z,95.30
2019-02-07T20:13:35.239Z,95.60
2019-02-07T20:16:07.825Z,95.20
2019-02-07T20:18:37.577Z,95.10
2019-02-07T20:21:11.782Z,95.20
2019-02-07T20:23:41.647Z,95.10
2019-02-07T20:26:14.181Z,95.20
2019-02-07T20:28:55.828Z,95.20
2019-02-07T20:31:25.966Z,95.30
2019-02-07T20:33:57.143Z,95.30
2019-02-07T20:36:27.246Z,95.30
2019-02-07T20:39:00.054Z,95.30
2019-02-07T20:41:30.083Z,95.30
2019-02-07T20:44:02.207Z,95.30
2019-02-07T20:46:32.166Z,95.20
2019-02-07T20:49:01.609Z,95.20
2019-02-07T20:51:31.107Z,95.30
2019-02-07T20:54:00.916Z,95.10
2019-02-07T20:56:30.913Z,95.20
2019-02-07T20:59:00.758Z,95.20
2019-02-07T21:01:32.297Z,95.40
2019-02-07T21:04:02.577Z,95.50
2019-02-07T21:06:36.648Z,95.50
2019-02-07T21:09:10.874Z,95.50
2019-02-07T21:11:42.226Z,95.50
2019-02-07T21:14:12.151Z,95.40
2019-02-07T21:16:44.058Z,95.40
2019-02-07T21:19:17.653Z,95.40
2019-02-07T21:21:48.076Z,95.20
2019-02-07T21:24:18.126Z,95.10
2019-02-07T21:26:51.046Z,95.20
2019-02-07T21:29:27.283Z,95.30
2019-02-07T21:31:58.842Z,95.30
2019-02-07T21:34:29.560Z,95.30
2019-02-07T21:37:02.134Z,95.30
2019-02-07T21:39:33.701Z,95.20
2019-02-07T21:42:08.273Z,95.10
2019-02-07T21:44:38.838Z,95.10
2019-02-07T21:47:10.324Z,95.10
2019-02-07T21:49:40.700Z,95.20
2019-02-07T21:52:10.333Z,95.10
2019-02-07T21:54:40.673Z,95.10
2019-02-07T21:57:10.374Z,94.90
2019-02-07T21:59:40.189Z,94.90
2019-02-07T22:02:09.734Z,94.90
2019-02-07T22:04:39.238Z,94.90
2019-02-07T22:07:09.197Z,94.90
2019-02-07T22:09:38.951Z,95.00
2019-02-07T22:12:08.751Z,95.00
2019-02-07T22:14:38.945Z,94.90
2019-02-07T22:17:09.472Z,94.80
2019-02-07T22:19:41.188Z,94.80
2019-02-07T22:22:10.621Z,94.70
2019-02-07T22:24:40.643Z,94.60
2019-02-07T22:27:09.854Z,94.70
2019-02-07T22:29:40.019Z,94.60
2019-02-07T22:32:09.894Z,94.50
2019-02-07T22:34:39.354Z,94.40
2019-02-07T22:37:08.599Z,94.40
2019-02-07T22:39:38.225Z,94.50
2019-02-07T22:42:07.630Z,94.40
2019-02-07T22:44:55.660Z,94.20
2019-02-07T22:47:25.386Z,94.30
2019-02-07T22:49:54.831Z,94.20
2019-02-07T22:52:24.591Z,94.00
2019-02-07T22:54:54.636Z,93.90
2019-02-07T22:57:26.643Z,93.80
2019-02-07T22:59:56.832Z,93.70
2019-02-07T23:02:26.306Z,93.50
2019-02-07T23:04:55.688Z,93.40
2019-02-07T23:07:25.167Z,93.40
2019-02-07T23:09:55.924Z,93.30
2019-02-07T23:12:25.906Z,93.30
2019-02-07T23:14:55.087Z,93.30
2019-02-07T23:17:24.883Z,93.30
2019-02-07T23:19:55.147Z,93.20
2019-02-07T23:22:28.108Z,93.10
2019-02-07T23:24:57.844Z,93.00
2019-02-07T23:27:27.886Z,93.10
2019-02-07T23:29:59.329Z,92.90
2019-02-07T23:32:28.997Z,93.00
2019-02-07T23:34:58.996Z,93.00
2019-02-07T23:37:29.117Z,93.00
2019-02-07T23:39:58.276Z,93.00
2019-02-07T23:42:27.910Z,93.00
2019-02-07T23:44:57.930Z,93.10
2019-02-07T23:47:27.692Z,93.10
2019-02-07T23:49:56.831Z,93.10
2019-02-07T23:52:26.242Z,93.20
2019-02-07T23:54:57.381Z,93.20
2019-02-07T23:57:26.634Z,93.20
2019-02-07T23:59:56.166Z,93.20
